CYZS

Coral Harbour

Airport
ICAO code
CYZS
Summary
ICAO Region
NAM
ICAO Territory
Location

Coral Harbour, Nunavut,

Coordinates
64° 11' 36" N , 83° 21' 34" W
Metar
CYZS 142000Z 04017KT 15SM SCT210 M03/M09 A3005 RMK CI4 SLP183

Runways

Designator Length Width Surface Rops
16T/34T 1524 30 GVL No/No

Airport map

Aerial View

SKYbrary Partners:

Safety knowledge contributed by: